Union Grove, Louisiana
Current Conditions -  °F | °C
As of 4:55 PM on Tuesday 21 Oct 2014 (Local Time) from KIER Reporting Station
Clear Clear  
Wind Chill: 81°   Ceiling: Unl
Heat Index: 82°   Visibility: 10mi
Dew Point: 63°   Wind: 5mph
Humidity: 54%   Direction: 40°NE
Pressure: 30.01"   Gusts: NA
Location:  31.6668°N, 92.8023°W
Report Text: KIER 212155Z AUTO 04004KT 10SM CLR 27/17 A3001 RMK AO2 T02700170
Loading
Personal Weather Stations






























Interactive Weather Map New forecast layout! Learn more

10-Day Weather Forecast

Advertisements
Track Severe Weather on mobile